Time;durP1;ratioP1;P1;durP2;ratioP2;P2;SDS_P1;SDS_P2;PMS_P1;PMS_P2;Temp;Humidity;BMP_temperature;BMP_pressure;BME280_temperature;BME280_humidity;BME280_pressure;Samples;Min_cycle;Max_cycle;Signal;HPM_P1;HPM_P2
2022/06/02 00:00:57;;;;;;;36.70;32.03;;;;;;;;;;5030601;28;20183;-42
2022/06/02 00:03:35;;;;;;;46.30;36.73;;;;;;;;;;5051914;28;20167;-42
2022/06/02 00:06:11;;;;;;;36.83;31.63;;;;;;;;;;5050172;28;20273;-40
2022/06/02 00:08:56;;;;;;;45.17;35.80;;;;;;;;;;5048933;28;20166;-42
2022/06/02 00:11:41;;;;;;;34.77;30.50;;;;;;;;;;5051182;28;20213;-42
2022/06/02 00:14:10;;;;;;;47.43;35.53;;;;;;;;;;5048074;28;20795;-42
2022/06/02 00:16:47;;;;;;;40.57;32.40;;;;;;;;;;5044262;28;20623;-42
2022/06/02 00:19:21;;;;;;;37.33;30.47;;;;;;;;;;5049668;28;20178;-42
2022/06/02 00:21:50;;;;;;;39.07;32.50;;;;;;;;;;5049974;28;20607;-42
2022/06/02 00:24:40;;;;;;;34.47;29.93;;;;;;;;;;5038642;28;20579;-40
2022/06/02 00:27:18;;;;;;;32.63;28.63;;;;;;;;;;5042762;28;20199;-42
2022/06/02 00:30:04;;;;;;;36.73;30.87;;;;;;;;;;5049288;28;20185;-42
2022/06/02 00:32:45;;;;;;;31.77;28.03;;;;;;;;;;5049206;28;20171;-42
2022/06/02 00:35:17;;;;;;;33.47;28.23;;;;;;;;;;5045235;28;20481;-43
2022/06/02 00:37:50;;;;;;;36.63;28.57;;;;;;;;;;5046239;28;20238;-42
2022/06/02 00:40:17;;;;;;;30.07;26.77;;;;;;;;;;5052011;28;20174;-42
2022/06/02 00:43:05;;;;;;;27.77;24.70;;;;;;;;;;5047601;28;20300;-41
2022/06/02 00:45:32;;;;;;;29.60;23.90;;;;;;;;;;5050806;28;20750;-42
2022/06/02 00:47:58;;;;;;;26.03;19.90;;;;;;;;;;5050223;28;21000;-42
2022/06/02 00:50:24;;;;;;;23.17;18.87;;;;;;;;;;5044636;28;20413;-42
2022/06/02 00:52:59;;;;;;;25.10;19.47;;;;;;;;;;5044435;28;20956;-42
2022/06/02 00:58:59;;;;;;;21.07;17.80;;;;;;;;;;5033511;28;20249;-41
2022/06/02 01:01:26;;;;;;;23.03;18.10;;;;;;;;;;5047828;28;20206;-42
2022/06/02 01:03:54;;;;;;;24.93;18.87;;;;;;;;;;5045562;28;20623;-41
2022/06/02 01:06:26;;;;;;;26.97;23.10;;;;;;;;;;5048361;28;20237;-42
2022/06/02 01:09:10;;;;;;;24.77;20.33;;;;;;;;;;5048138;28;20405;-42
2022/06/02 01:11:55;;;;;;;22.50;18.70;;;;;;;;;;5047229;28;20535;-41
2022/06/02 01:14:40;;;;;;;20.40;16.90;;;;;;;;;;5061933;28;20195;-42
2022/06/02 01:17:26;;;;;;;25.03;18.83;;;;;;;;;;5047944;28;20477;-41
2022/06/02 01:19:59;;;;;;;19.17;15.77;;;;;;;;;;5047315;28;20453;-42
2022/06/02 01:22:28;;;;;;;19.50;16.03;;;;;;;;;;5043784;28;20212;-42
2022/06/02 01:25:15;;;;;;;21.03;16.47;;;;;;;;;;5046795;28;20489;-42
2022/06/02 01:27:41;;;;;;;21.40;18.27;;;;;;;;;;5045856;28;20721;-42
2022/06/02 01:30:30;;;;;;;23.83;15.40;;;;;;;;;;5043524;28;20235;-42
2022/06/02 01:33:05;;;;;;;21.27;16.70;;;;;;;;;;5045649;28;20689;-41
2022/06/02 01:35:39;;;;;;;29.23;18.93;;;;;;;;;;5046269;28;20632;-41
2022/06/02 01:38:29;;;;;;;24.50;19.27;;;;;;;;;;5045176;28;20942;-42
2022/06/02 01:40:55;;;;;;;24.27;18.23;;;;;;;;;;5041112;28;20183;-41
2022/06/02 01:43:24;;;;;;;18.07;15.97;;;;;;;;;;5039036;28;20214;-42
2022/06/02 01:46:05;;;;;;;21.63;16.33;;;;;;;;;;5046459;28;20221;-42
2022/06/02 01:48:51;;;;;;;25.33;18.97;;;;;;;;;;5043947;28;20805;-42
2022/06/02 01:51:30;;;;;;;33.23;22.13;;;;;;;;;;5048225;28;20179;-42
2022/06/02 01:54:05;;;;;;;25.33;20.67;;;;;;;;;;5047231;28;21086;-42
2022/06/02 01:56:31;;;;;;;27.57;19.17;;;;;;;;;;5040326;28;20199;-42
2022/06/02 01:58:57;;;;;;;29.93;21.00;;;;;;;;;;5048888;28;20179;-43
2022/06/02 02:01:29;;;;;;;31.27;19.17;;;;;;;;;;5050908;28;20180;-42
2022/06/02 02:03:58;;;;;;;19.83;16.93;;;;;;;;;;5049165;28;20495;-43
2022/06/02 02:06:33;;;;;;;24.30;19.47;;;;;;;;;;5049882;28;20175;-43
2022/06/02 02:09:05;;;;;;;29.60;21.80;;;;;;;;;;5049525;28;20174;-43
2022/06/02 02:11:46;;;;;;;28.37;19.93;;;;;;;;;;5051911;28;20840;-43
2022/06/02 02:14:31;;;;;;;24.87;19.07;;;;;;;;;;5052814;28;20190;-43
2022/06/02 02:17:13;;;;;;;27.80;19.93;;;;;;;;;;5052687;28;20198;-43
2022/06/02 02:19:45;;;;;;;29.10;19.23;;;;;;;;;;5048059;28;20174;-42
2022/06/02 02:22:30;;;;;;;26.10;17.40;;;;;;;;;;5043635;28;20178;-42
2022/06/02 02:25:02;;;;;;;25.63;16.93;;;;;;;;;;5045858;28;20190;-43
2022/06/02 02:28:02;;;;;;;21.93;15.87;;;;;;;;;;5045751;28;20182;-43
2022/06/02 02:30:38;;;;;;;28.47;16.83;;;;;;;;;;5043832;28;20179;-43
2022/06/02 02:33:13;;;;;;;20.43;14.03;;;;;;;;;;5043845;28;20167;-43
2022/06/02 02:35:42;;;;;;;31.13;16.47;;;;;;;;;;5043933;28;20257;-43
2022/06/02 02:38:27;;;;;;;18.70;14.23;;;;;;;;;;5047738;28;20285;-43
2022/06/02 02:40:56;;;;;;;22.07;15.40;;;;;;;;;;5043789;28;21433;-43
2022/06/02 02:43:26;;;;;;;15.73;13.17;;;;;;;;;;5038394;28;20171;-43
2022/06/02 02:46:11;;;;;;;19.00;14.40;;;;;;;;;;5044052;28;20189;-43
2022/06/02 02:48:49;;;;;;;22.87;13.20;;;;;;;;;;5042360;28;21003;-42
2022/06/02 02:51:16;;;;;;;17.97;11.87;;;;;;;;;;5045971;28;20179;-42
2022/06/02 02:53:50;;;;;;;17.33;11.87;;;;;;;;;;5048380;28;20316;-43
2022/06/02 02:56:28;;;;;;;17.23;11.20;;;;;;;;;;5044364;28;20171;-43
2022/06/02 02:58:59;;;;;;;18.60;11.90;;;;;;;;;;5039785;28;20286;-43
2022/06/02 03:01:40;;;;;;;15.67;10.43;;;;;;;;;;5039949;28;20179;-43
2022/06/02 03:04:09;;;;;;;18.87;11.17;;;;;;;;;;5048330;28;20163;-43
2022/06/02 03:06:40;;;;;;;10.57;8.73;;;;;;;;;;5048005;28;20698;-42
2022/06/02 03:09:14;;;;;;;11.30;8.97;;;;;;;;;;5043048;28;20178;-43
2022/06/02 03:11:46;;;;;;;13.77;9.60;;;;;;;;;;5040939;28;20682;-42
2022/06/02 03:14:12;;;;;;;13.33;9.63;;;;;;;;;;5048621;28;20187;-43
2022/06/02 03:16:39;;;;;;;13.27;9.53;;;;;;;;;;5048210;28;20213;-43
2022/06/02 03:19:23;;;;;;;12.07;8.43;;;;;;;;;;5041786;28;20176;-43
2022/06/02 03:21:58;;;;;;;14.57;9.57;;;;;;;;;;5039429;28;20284;-42
2022/06/02 03:24:40;;;;;;;15.07;8.77;;;;;;;;;;5043393;28;20224;-43
2022/06/02 03:27:09;;;;;;;10.70;8.33;;;;;;;;;;5041468;28;20175;-42
2022/06/02 03:29:55;;;;;;;10.47;8.50;;;;;;;;;;5044347;28;20799;-43
2022/06/02 03:32:24;;;;;;;10.73;7.27;;;;;;;;;;5039098;28;20576;-43
2022/06/02 03:35:02;;;;;;;10.80;8.10;;;;;;;;;;5041281;28;20183;-43
2022/06/02 03:37:47;;;;;;;10.47;7.63;;;;;;;;;;5045964;28;20213;-43
2022/06/02 03:40:22;;;;;;;12.83;7.90;;;;;;;;;;5040878;28;20205;-43
2022/06/02 03:42:51;;;;;;;17.43;7.97;;;;;;;;;;5040275;28;20917;-42
2022/06/02 03:45:30;;;;;;;9.47;6.80;;;;;;;;;;5058299;27;20506;-43
2022/06/02 03:48:22;;;;;;;10.63;6.87;;;;;;;;;;5040232;28;20186;-42
2022/06/02 03:51:07;;;;;;;9.83;7.20;;;;;;;;;;5021939;28;20420;-42
2022/06/02 03:53:48;;;;;;;10.50;7.47;;;;;;;;;;5043796;28;20492;-42
2022/06/02 03:56:29;;;;;;;15.17;8.30;;;;;;;;;;5035175;28;20370;-42
2022/06/02 03:59:14;;;;;;;11.40;7.83;;;;;;;;;;5039133;28;20177;-42
2022/06/02 04:01:41;;;;;;;13.27;8.03;;;;;;;;;;5045140;28;20333;-42
2022/06/02 04:04:13;;;;;;;13.53;7.43;;;;;;;;;;5049867;28;20233;-41
2022/06/02 04:06:45;;;;;;;12.70;8.30;;;;;;;;;;5046277;28;20244;-42
2022/06/02 04:09:18;;;;;;;13.77;8.50;;;;;;;;;;5050314;28;20252;-41
2022/06/02 04:15:05;;;;;;;14.27;7.63;;;;;;;;;;5045464;28;20186;-42
2022/06/02 04:17:50;;;;;;;10.03;7.03;;;;;;;;;;5038753;28;20771;-42
2022/06/02 04:20:34;;;;;;;11.60;7.80;;;;;;;;;;5049069;28;20205;-41
2022/06/02 04:23:15;;;;;;;9.47;7.27;;;;;;;;;;5046987;28;20607;-42
2022/06/02 04:26:00;;;;;;;15.67;8.90;;;;;;;;;;5048184;28;20761;-41
2022/06/02 04:28:38;;;;;;;13.57;8.13;;;;;;;;;;5045014;28;20645;-42
2022/06/02 04:31:07;;;;;;;13.00;7.90;;;;;;;;;;5050152;28;20836;-42
2022/06/02 04:33:35;;;;;;;13.13;9.47;;;;;;;;;;5049684;28;20356;-42
2022/06/02 04:36:20;;;;;;;14.97;10.70;;;;;;;;;;5042976;28;21016;-42
2022/06/02 04:39:21;;;;;;;16.87;12.37;;;;;;;;;;5049009;28;20678;-42
2022/06/02 04:41:47;;;;;;;22.63;15.93;;;;;;;;;;5024615;28;20268;-42
2022/06/02 04:44:25;;;;;;;22.57;17.40;;;;;;;;;;5041908;28;20202;-41
2022/06/02 04:46:51;;;;;;;25.07;15.97;;;;;;;;;;5047320;28;21144;-42
2022/06/02 04:49:36;;;;;;;26.07;20.37;;;;;;;;;;5050068;28;20895;-42
2022/06/02 04:52:12;;;;;;;32.40;20.37;;;;;;;;;;5047325;28;20230;-41
2022/06/02 04:54:41;;;;;;;31.67;22.20;;;;;;;;;;5064540;27;20664;-43
2022/06/02 04:57:13;;;;;;;33.03;22.03;;;;;;;;;;5048100;28;20230;-42
2022/06/02 04:59:54;;;;;;;32.43;22.80;;;;;;;;;;5049587;28;20175;-42
2022/06/02 05:02:33;;;;;;;27.23;20.67;;;;;;;;;;5043455;28;20631;-43
2022/06/02 05:04:59;;;;;;;28.87;21.40;;;;;;;;;;5047880;28;20228;-42
2022/06/02 05:07:28;;;;;;;36.70;25.57;;;;;;;;;;5049334;28;20519;-43
2022/06/02 05:10:23;;;;;;;35.00;23.77;;;;;;;;;;5046703;28;20171;-43
2022/06/02 05:13:01;;;;;;;29.97;21.20;;;;;;;;;;5044138;28;20713;-43
2022/06/02 05:15:48;;;;;;;28.63;21.83;;;;;;;;;;5048524;28;20183;-43
2022/06/02 05:18:33;;;;;;;36.70;23.00;;;;;;;;;;5058750;28;20914;-42
2022/06/02 05:21:09;;;;;;;37.37;23.40;;;;;;;;;;5042917;28;20180;-43
2022/06/02 05:23:38;;;;;;;25.07;20.20;;;;;;;;;;5048332;28;20166;-43
2022/06/02 05:26:23;;;;;;;29.40;20.10;;;;;;;;;;5046941;28;20163;-42
2022/06/02 05:28:49;;;;;;;26.70;19.50;;;;;;;;;;5046103;28;20902;-43
2022/06/02 05:31:38;;;;;;;27.67;20.07;;;;;;;;;;5053136;28;20764;-43
2022/06/02 05:34:23;;;;;;;28.40;20.03;;;;;;;;;;5030271;28;20190;-43
2022/06/02 05:37:01;;;;;;;25.40;19.27;;;;;;;;;;5047702;28;20199;-43
2022/06/02 05:39:27;;;;;;;26.37;17.93;;;;;;;;;;5047350;28;20175;-43
2022/06/02 05:42:09;;;;;;;26.63;18.60;;;;;;;;;;5047426;28;20531;-43
2022/06/02 05:44:54;;;;;;;26.73;20.10;;;;;;;;;;5051881;28;20164;-43
2022/06/02 05:47:47;;;;;;;25.17;18.87;;;;;;;;;;5052473;28;20552;-43
2022/06/02 05:50:13;;;;;;;23.70;17.50;;;;;;;;;;5051460;28;20183;-41
2022/06/02 05:52:43;;;;;;;24.13;18.27;;;;;;;;;;5066755;28;20171;-44
2022/06/02 05:55:27;;;;;;;23.37;18.10;;;;;;;;;;5051171;28;20845;-42
2022/06/02 05:58:16;;;;;;;28.53;17.13;;;;;;;;;;5063604;27;20195;-43
2022/06/02 06:00:44;;;;;;;20.30;14.80;;;;;;;;;;5053821;28;21022;-43
2022/06/02 06:03:32;;;;;;;18.07;13.30;;;;;;;;;;5054022;28;20849;-42
2022/06/02 06:06:03;;;;;;;19.87;12.90;;;;;;;;;;5047859;28;20555;-44
2022/06/02 06:08:41;;;;;;;18.70;12.13;;;;;;;;;;5053536;28;20195;-44
2022/06/02 06:11:13;;;;;;;15.30;11.97;;;;;;;;;;5053090;28;20187;-44
2022/06/02 06:13:49;;;;;;;16.37;11.40;;;;;;;;;;5049628;28;20729;-45
2022/06/02 06:16:18;;;;;;;16.57;11.40;;;;;;;;;;5054183;28;20216;-43
2022/06/02 06:19:09;;;;;;;20.10;10.90;;;;;;;;;;5052493;28;20298;-43
2022/06/02 06:21:54;;;;;;;12.03;10.00;;;;;;;;;;5050257;28;20217;-43
2022/06/02 06:24:20;;;;;;;16.87;10.23;;;;;;;;;;5050802;28;20969;-44
2022/06/02 06:27:05;;;;;;;17.27;11.93;;;;;;;;;;5050063;28;20501;-44
2022/06/02 06:29:49;;;;;;;17.50;12.30;;;;;;;;;;5066886;27;20175;-44
2022/06/02 06:32:15;;;;;;;16.67;10.73;;;;;;;;;;5051539;28;20956;-44
2022/06/02 06:34:41;;;;;;;18.13;12.47;;;;;;;;;;5049236;28;21242;-42
2022/06/02 06:37:13;;;;;;;15.80;11.17;;;;;;;;;;5053328;28;20739;-41
2022/06/02 06:39:42;;;;;;;15.10;11.40;;;;;;;;;;5048943;28;20499;-42
2022/06/02 06:42:15;;;;;;;14.33;11.20;;;;;;;;;;5047845;28;20172;-44
2022/06/02 06:44:41;;;;;;;15.30;10.83;;;;;;;;;;5059309;28;21650;-44
2022/06/02 06:47:11;;;;;;;15.23;11.07;;;;;;;;;;5053198;28;20171;-43
2022/06/02 06:49:37;;;;;;;19.07;10.77;;;;;;;;;;5050815;28;20294;-43
2022/06/02 06:52:11;;;;;;;15.90;11.47;;;;;;;;;;5048824;28;20202;-43
2022/06/02 06:54:43;;;;;;;17.77;11.40;;;;;;;;;;5053722;28;20990;-43
2022/06/02 06:57:12;;;;;;;14.23;10.43;;;;;;;;;;5048043;28;20609;-43
2022/06/02 07:00:04;;;;;;;15.03;9.97;;;;;;;;;;5052291;28;20172;-42
2022/06/02 07:02:47;;;;;;;14.33;10.23;;;;;;;;;;5047683;28;20229;-43
2022/06/02 07:05:33;;;;;;;15.50;9.23;;;;;;;;;;5051426;28;20176;-43
2022/06/02 07:08:11;;;;;;;12.53;8.83;;;;;;;;;;5048534;28;20303;-43
2022/06/02 07:10:56;;;;;;;12.87;9.30;;;;;;;;;;5055157;28;20347;-43
2022/06/02 07:13:46;;;;;;;13.93;9.40;;;;;;;;;;5051524;28;20257;-43
2022/06/02 07:16:21;;;;;;;10.27;8.07;;;;;;;;;;5047836;28;20489;-43
2022/06/02 07:18:58;;;;;;;11.43;7.97;;;;;;;;;;5045617;28;20223;-43
2022/06/02 07:21:33;;;;;;;12.67;8.43;;;;;;;;;;5047589;28;20228;-43
2022/06/02 07:24:06;;;;;;;12.43;8.07;;;;;;;;;;5049474;28;20174;-43
2022/06/02 07:26:38;;;;;;;11.00;7.80;;;;;;;;;;5050878;28;20175;-42
2022/06/02 07:29:24;;;;;;;13.73;7.03;;;;;;;;;;5055013;28;20163;-43
2022/06/02 07:32:09;;;;;;;10.97;7.87;;;;;;;;;;5041114;28;20225;-43
2022/06/02 07:34:54;;;;;;;10.77;7.50;;;;;;;;;;5054469;28;20175;-43
2022/06/02 07:37:32;;;;;;;13.90;7.97;;;;;;;;;;5050518;28;21137;-43
2022/06/02 07:40:06;;;;;;;9.83;7.10;;;;;;;;;;5043583;28;20996;-43
2022/06/02 07:42:58;;;;;;;12.30;7.00;;;;;;;;;;5044989;28;21033;-43
2022/06/02 07:45:31;;;;;;;10.60;6.97;;;;;;;;;;5054502;28;20175;-43
2022/06/02 07:48:06;;;;;;;10.23;6.40;;;;;;;;;;5047857;28;20629;-43
2022/06/02 07:50:34;;;;;;;11.03;6.20;;;;;;;;;;5049269;28;20657;-44
2022/06/02 07:53:07;;;;;;;11.13;6.30;;;;;;;;;;5052232;28;20660;-44
2022/06/02 07:55:33;;;;;;;13.03;6.17;;;;;;;;;;5052086;28;20172;-42
2022/06/02 07:58:16;;;;;;;9.00;5.70;;;;;;;;;;5049271;28;20316;-42
2022/06/02 08:01:00;;;;;;;11.83;6.13;;;;;;;;;;5050991;28;20876;-42
2022/06/02 08:03:29;;;;;;;8.77;5.83;;;;;;;;;;5058775;28;20170;-42
2022/06/02 08:06:06;;;;;;;13.03;6.23;;;;;;;;;;5057359;28;20217;-42
2022/06/02 08:08:55;;;;;;;13.73;6.20;;;;;;;;;;5059397;28;20185;-42
2022/06/02 08:11:30;;;;;;;11.00;5.90;;;;;;;;;;5014399;28;20206;-42
2022/06/02 08:14:02;;;;;;;12.03;6.60;;;;;;;;;;5058585;28;20273;-41
2022/06/02 08:16:47;;;;;;;13.03;6.50;;;;;;;;;;5057922;28;20487;-42
2022/06/02 08:19:30;;;;;;;11.77;6.60;;;;;;;;;;5050133;28;20179;-44
2022/06/02 08:22:00;;;;;;;9.03;6.30;;;;;;;;;;5049652;28;20175;-43
2022/06/02 08:24:44;;;;;;;10.90;6.27;;;;;;;;;;5054681;28;20312;-44
2022/06/02 08:27:12;;;;;;;11.17;6.47;;;;;;;;;;5053354;28;20217;-44
2022/06/02 08:29:41;;;;;;;13.83;7.30;;;;;;;;;;5049768;28;20168;-44
2022/06/02 08:32:07;;;;;;;7.53;6.33;;;;;;;;;;5049678;28;20179;-43
2022/06/02 08:34:49;;;;;;;11.17;7.57;;;;;;;;;;5053611;28;20185;-43
2022/06/02 08:37:18;;;;;;;9.57;7.40;;;;;;;;;;5049241;28;20257;-44
2022/06/02 08:39:47;;;;;;;10.23;6.67;;;;;;;;;;5049421;28;20217;-44
2022/06/02 08:42:33;;;;;;;8.37;6.13;;;;;;;;;;5049573;28;20199;-43
2022/06/02 08:45:05;;;;;;;8.40;5.90;;;;;;;;;;5047214;28;20178;-44
2022/06/02 08:47:50;;;;;;;10.27;5.67;;;;;;;;;;5050072;28;20186;-44
2022/06/02 08:50:55;;;;;;;8.93;5.43;;;;;;;;;;5049880;28;20233;-43
2022/06/02 08:53:50;;;;;;;12.17;6.23;;;;;;;;;;4991860;28;20396;-44
2022/06/02 08:56:25;;;;;;;10.67;5.20;;;;;;;;;;4940101;28;20198;-44
2022/06/02 08:59:29;;;;;;;8.10;5.30;;;;;;;;;;5038337;28;20228;-44
2022/06/02 09:02:14;;;;;;;9.10;5.60;;;;;;;;;;4991211;28;20278;-44
2022/06/02 09:04:59;;;;;;;9.53;5.30;;;;;;;;;;5042152;28;20602;-42
2022/06/02 09:07:30;;;;;;;10.07;4.97;;;;;;;;;;5050023;28;20199;-41
2022/06/02 09:10:09;;;;;;;8.63;5.30;;;;;;;;;;5048938;28;20175;-44
2022/06/02 09:12:54;;;;;;;9.00;5.53;;;;;;;;;;5048782;28;21593;-44
2022/06/02 09:15:39;;;;;;;9.83;4.67;;;;;;;;;;5050151;28;20187;-42
2022/06/02 09:18:10;;;;;;;8.37;4.80;;;;;;;;;;5046398;28;20317;-44
2022/06/02 09:20:50;;;;;;;7.93;4.43;;;;;;;;;;5050217;28;20163;-43
2022/06/02 09:23:16;;;;;;;7.53;5.17;;;;;;;;;;5051987;28;20170;-44
2022/06/02 09:25:48;;;;;;;14.87;5.20;;;;;;;;;;5050030;28;20857;-44
2022/06/02 09:28:17;;;;;;;8.57;4.60;;;;;;;;;;5049133;28;20187;-44
2022/06/02 09:30:43;;;;;;;10.10;4.90;;;;;;;;;;5052619;28;20671;-44
2022/06/02 09:33:37;;;;;;;9.33;5.07;;;;;;;;;;5052055;28;20243;-44
2022/06/02 09:36:22;;;;;;;8.83;5.90;;;;;;;;;;5049599;28;20202;-44
2022/06/02 09:38:53;;;;;;;14.13;5.67;;;;;;;;;;5048985;28;20461;-44
2022/06/02 09:41:19;;;;;;;9.37;6.03;;;;;;;;;;5050862;28;20611;-44
2022/06/02 09:43:57;;;;;;;8.90;5.30;;;;;;;;;;5050788;28;20578;-44
2022/06/02 09:46:30;;;;;;;9.13;4.50;;;;;;;;;;5048369;28;20170;-44
2022/06/02 09:49:06;;;;;;;9.93;4.60;;;;;;;;;;5047902;28;20872;-42
2022/06/02 09:51:51;;;;;;;6.93;4.30;;;;;;;;;;5048025;28;20174;-42
2022/06/02 09:54:32;;;;;;;6.83;4.40;;;;;;;;;;5049863;28;20183;-42
2022/06/02 09:57:55;;;;;;;10.07;4.50;;;;;;;;;;5051350;28;20182;-42
2022/06/02 10:00:00;;;;;;;9.97;4.23;;;;;;;;;;5045944;28;20607;-43
2022/06/02 10:02:31;;;;;;;8.33;4.17;;;;;;;;;;5048264;28;20171;-43
2022/06/02 10:05:13;;;;;;;10.93;4.67;;;;;;;;;;5039672;28;20269;-42
2022/06/02 10:07:44;;;;;;;8.03;4.60;;;;;;;;;;5044854;28;20634;-42
2022/06/02 10:10:29;;;;;;;8.03;4.43;;;;;;;;;;5045972;28;20249;-43
2022/06/02 10:13:14;;;;;;;7.50;4.60;;;;;;;;;;5041045;28;20175;-43
2022/06/02 10:15:43;;;;;;;8.60;4.60;;;;;;;;;;5046562;28;20189;-43
2022/06/02 10:18:28;;;;;;;8.10;4.23;;;;;;;;;;5042535;28;20190;-43
2022/06/02 10:21:09;;;;;;;7.23;4.37;;;;;;;;;;5041591;28;20210;-43
2022/06/02 10:23:35;;;;;;;9.70;4.50;;;;;;;;;;5033084;28;20544;-43
2022/06/02 10:26:27;;;;;;;8.07;4.43;;;;;;;;;;5032304;28;20175;-43
2022/06/02 10:29:12;;;;;;;9.73;4.77;;;;;;;;;;5040188;28;20903;-44
2022/06/02 10:31:57;;;;;;;8.27;4.87;;;;;;;;;;5043689;28;20182;-44
2022/06/02 10:34:26;;;;;;;7.07;3.93;;;;;;;;;;5048929;28;20618;-44
2022/06/02 10:37:00;;;;;;;8.73;4.57;;;;;;;;;;5044230;28;20527;-43
2022/06/02 10:39:33;;;;;;;10.93;4.60;;;;;;;;;;5048358;28;20172;-44
2022/06/02 10:42:06;;;;;;;9.87;5.00;;;;;;;;;;5047062;28;20240;-44
2022/06/02 10:44:35;;;;;;;6.90;4.80;;;;;;;;;;5040231;28;20948;-44
2022/06/02 10:47:05;;;;;;;9.33;4.57;;;;;;;;;;5045048;28;20217;-44
2022/06/02 10:49:34;;;;;;;10.10;4.60;;;;;;;;;;5044145;28;20211;-44
2022/06/02 10:52:18;;;;;;;11.80;3.90;;;;;;;;;;5045103;28;20184;-44
2022/06/02 10:54:47;;;;;;;9.17;4.77;;;;;;;;;;5045590;28;20175;-44
2022/06/02 10:57:32;;;;;;;7.33;5.13;;;;;;;;;;5044727;28;20194;-44
2022/06/02 10:59:58;;;;;;;7.97;4.33;;;;;;;;;;5032143;28;20333;-42
2022/06/02 11:02:40;;;;;;;9.70;4.83;;;;;;;;;;5044715;28;21038;-42
2022/06/02 11:05:25;;;;;;;9.50;5.40;;;;;;;;;;5046859;28;20906;-43
2022/06/02 11:08:09;;;;;;;8.50;4.70;;;;;;;;;;5037201;28;20469;-43
2022/06/02 11:10:58;;;;;;;7.10;4.50;;;;;;;;;;5048478;28;20273;-43
2022/06/02 11:13:50;;;;;;;7.73;4.63;;;;;;;;;;5045549;28;20187;-43
2022/06/02 11:16:19;;;;;;;10.80;5.33;;;;;;;;;;5039913;28;20904;-43
2022/06/02 11:18:54;;;;;;;8.30;5.57;;;;;;;;;;5043897;28;20647;-43
2022/06/02 11:21:20;;;;;;;13.20;5.63;;;;;;;;;;5041614;28;21038;-43
2022/06/02 11:23:49;;;;;;;8.57;4.73;;;;;;;;;;5039285;28;20175;-42
2022/06/02 11:26:15;;;;;;;7.80;5.17;;;;;;;;;;5038902;28;20171;-42
2022/06/02 11:29:00;;;;;;;8.80;4.80;;;;;;;;;;5037640;28;20197;-43
2022/06/02 11:31:38;;;;;;;10.33;5.20;;;;;;;;;;5039511;28;20517;-43
2022/06/02 11:34:10;;;;;;;13.17;6.53;;;;;;;;;;5038417;28;20182;-43
2022/06/02 11:36:37;;;;;;;14.47;7.13;;;;;;;;;;5039299;28;20547;-43
2022/06/02 11:39:06;;;;;;;9.33;6.03;;;;;;;;;;5043710;28;20271;-44
2022/06/02 11:41:35;;;;;;;12.67;5.87;;;;;;;;;;5041488;28;21026;-44
2022/06/02 11:44:26;;;;;;;9.37;4.80;;;;;;;;;;5038548;28;20190;-44
2022/06/02 11:46:59;;;;;;;10.33;6.00;;;;;;;;;;5044392;28;20210;-44
2022/06/02 11:49:34;;;;;;;11.07;5.40;;;;;;;;;;5047167;28;20225;-44
2022/06/02 11:52:06;;;;;;;9.43;6.07;;;;;;;;;;5042028;28;20179;-44
2022/06/02 11:54:35;;;;;;;9.33;5.30;;;;;;;;;;5045341;28;20174;-44
2022/06/02 11:57:20;;;;;;;11.00;5.70;;;;;;;;;;5044975;28;20172;-44
2022/06/02 11:59:54;;;;;;;11.47;5.63;;;;;;;;;;5048549;28;21121;-45
2022/06/02 12:02:29;;;;;;;7.90;5.07;;;;;;;;;;5044259;28;21112;-44
2022/06/02 12:05:15;;;;;;;9.47;5.20;;;;;;;;;;5040817;28;20163;-44
2022/06/02 12:07:47;;;;;;;10.93;5.80;;;;;;;;;;5009185;28;20897;-44
2022/06/02 12:10:19;;;;;;;9.17;5.03;;;;;;;;;;5042675;28;20175;-44
2022/06/02 12:12:55;;;;;;;11.70;5.80;;;;;;;;;;5044792;28;21011;-44
2022/06/02 12:15:33;;;;;;;11.43;6.03;;;;;;;;;;5045638;28;20183;-44
2022/06/02 12:18:08;;;;;;;10.67;5.67;;;;;;;;;;5050597;28;20278;-45
2022/06/02 12:20:41;;;;;;;7.47;4.93;;;;;;;;;;5044251;28;20179;-44
2022/06/02 12:23:09;;;;;;;10.47;5.83;;;;;;;;;;5040083;28;20861;-45
2022/06/02 12:25:41;;;;;;;9.93;5.80;;;;;;;;;;5046826;28;20172;-44
2022/06/02 12:28:26;;;;;;;8.93;5.40;;;;;;;;;;5046371;28;20182;-44
2022/06/02 12:31:11;;;;;;;7.87;5.23;;;;;;;;;;5045739;28;20975;-44
2022/06/02 12:33:37;;;;;;;7.67;4.90;;;;;;;;;;5051015;28;20294;-44
2022/06/02 12:36:18;;;;;;;8.97;5.23;;;;;;;;;;5047808;28;20178;-44
2022/06/02 12:38:44;;;;;;;8.37;5.33;;;;;;;;;;5044857;28;20208;-44
2022/06/02 12:41:29;;;;;;;9.97;5.43;;;;;;;;;;5049264;28;20190;-44
2022/06/02 12:44:14;;;;;;;7.23;4.87;;;;;;;;;;5044771;28;20913;-43
2022/06/02 12:47:01;;;;;;;10.10;5.43;;;;;;;;;;5049485;28;20283;-44
2022/06/02 12:49:39;;;;;;;7.00;4.30;;;;;;;;;;5046019;28;20286;-44
2022/06/02 12:52:08;;;;;;;8.57;4.77;;;;;;;;;;5044031;28;20220;-44
2022/06/02 12:54:40;;;;;;;6.47;4.57;;;;;;;;;;5040394;28;20285;-44
2022/06/02 12:57:12;;;;;;;9.97;4.97;;;;;;;;;;5046361;28;20189;-43
2022/06/02 12:59:52;;;;;;;8.00;5.00;;;;;;;;;;5045533;28;20208;-44
2022/06/02 13:02:22;;;;;;;7.53;4.90;;;;;;;;;;5046486;28;20166;-44
2022/06/02 13:05:00;;;;;;;8.37;5.50;;;;;;;;;;5048878;28;20187;-44
2022/06/02 13:07:45;;;;;;;9.23;5.47;;;;;;;;;;5043992;28;20171;-43
2022/06/02 13:10:29;;;;;;;10.27;5.73;;;;;;;;;;5042147;28;20291;-44
2022/06/02 13:12:55;;;;;;;7.23;5.03;;;;;;;;;;5044616;28;20596;-43
2022/06/02 13:15:24;;;;;;;9.33;5.50;;;;;;;;;;5038859;28;21047;-44
2022/06/02 13:17:56;;;;;;;8.87;5.67;;;;;;;;;;5042770;28;20448;-44
2022/06/02 13:20:23;;;;;;;7.10;4.83;;;;;;;;;;5046329;28;20786;-44
2022/06/02 13:23:08;;;;;;;7.40;4.83;;;;;;;;;;5040192;28;20281;-43
2022/06/02 13:25:52;;;;;;;7.43;5.20;;;;;;;;;;5047056;28;20181;-43
2022/06/02 13:28:38;;;;;;;7.43;5.50;;;;;;;;;;5040620;28;20177;-43
2022/06/02 13:31:10;;;;;;;7.93;5.17;;;;;;;;;;5036243;28;20601;-43
2022/06/02 13:33:51;;;;;;;7.63;5.00;;;;;;;;;;5042318;28;20196;-42
2022/06/02 13:36:36;;;;;;;6.27;4.70;;;;;;;;;;5045280;28;20751;-43
2022/06/02 13:39:02;;;;;;;9.10;5.60;;;;;;;;;;5039276;28;20742;-43
2022/06/02 13:41:45;;;;;;;7.40;5.57;;;;;;;;;;5045922;28;20195;-43
2022/06/02 13:44:30;;;;;;;10.03;6.30;;;;;;;;;;5044832;28;20478;-42
2022/06/02 13:47:02;;;;;;;8.20;5.97;;;;;;;;;;5042418;28;20174;-43
2022/06/02 13:49:47;;;;;;;8.47;5.50;;;;;;;;;;5048594;28;20184;-44
2022/06/02 13:52:25;;;;;;;10.67;6.40;;;;;;;;;;5042102;28;20181;-44
2022/06/02 13:57:53;;;;;;;7.27;5.67;;;;;;;;;;5033626;28;20752;-43
2022/06/02 14:00:26;;;;;;;8.00;5.67;;;;;;;;;;5036118;28;20175;-43
2022/06/02 14:02:58;;;;;;;8.27;6.10;;;;;;;;;;5039588;28;20834;-44
2022/06/02 14:05:42;;;;;;;8.40;6.07;;;;;;;;;;5039090;28;20178;-44
2022/06/02 14:08:24;;;;;;;8.40;5.63;;;;;;;;;;5037140;28;20413;-43
2022/06/02 14:10:57;;;;;;;12.13;6.57;;;;;;;;;;5041639;28;20322;-44
2022/06/02 14:13:24;;;;;;;13.07;6.80;;;;;;;;;;5045044;28;20175;-44
2022/06/02 14:16:09;;;;;;;8.03;6.40;;;;;;;;;;5041444;28;20661;-44
2022/06/02 14:18:39;;;;;;;9.57;5.70;;;;;;;;;;5038779;28;20763;-43
2022/06/02 14:21:20;;;;;;;10.67;6.40;;;;;;;;;;5045863;28;20169;-43
2022/06/02 14:23:53;;;;;;;8.60;6.00;;;;;;;;;;5040349;28;21362;-44
2022/06/02 14:26:20;;;;;;;12.60;6.70;;;;;;;;;;5039538;28;20616;-43
2022/06/02 14:28:46;;;;;;;8.23;6.10;;;;;;;;;;5048009;28;20202;-43
2022/06/02 14:31:31;;;;;;;9.67;6.43;;;;;;;;;;5051363;28;20198;-44
2022/06/02 14:34:06;;;;;;;9.03;6.13;;;;;;;;;;5049340;28;20182;-43
2022/06/02 14:36:45;;;;;;;9.33;6.00;;;;;;;;;;5049845;28;20175;-44
2022/06/02 14:39:23;;;;;;;8.73;6.73;;;;;;;;;;5046345;28;20186;-43
2022/06/02 14:42:08;;;;;;;9.47;6.00;;;;;;;;;;5044319;28;20983;-44
2022/06/02 14:44:40;;;;;;;13.60;6.47;;;;;;;;;;5051938;28;20174;-44
2022/06/02 14:47:06;;;;;;;10.33;6.10;;;;;;;;;;5047724;28;20764;-43
2022/06/02 14:49:36;;;;;;;11.87;5.67;;;;;;;;;;5052692;28;20661;-42
2022/06/02 14:52:11;;;;;;;10.57;5.37;;;;;;;;;;5053773;28;20173;-44
2022/06/02 14:54:56;;;;;;;8.73;5.63;;;;;;;;;;5042992;28;20277;-43
2022/06/02 14:57:30;;;;;;;6.77;4.67;;;;;;;;;;5043617;28;20197;-43
2022/06/02 15:00:09;;;;;;;5.83;5.07;;;;;;;;;;5052432;28;20169;-43
2022/06/02 15:02:48;;;;;;;8.17;4.77;;;;;;;;;;5048809;28;20484;-43
2022/06/02 15:05:32;;;;;;;4.60;4.17;;;;;;;;;;5047414;28;21019;-44
2022/06/02 15:07:59;;;;;;;8.33;5.70;;;;;;;;;;5050890;28;20182;-44
2022/06/02 15:10:29;;;;;;;6.57;5.50;;;;;;;;;;5047987;28;20264;-43
2022/06/02 15:12:59;;;;;;;8.90;5.80;;;;;;;;;;5046500;28;20682;-43
2022/06/02 15:15:31;;;;;;;9.17;5.23;;;;;;;;;;5052656;28;20625;-44
2022/06/02 15:18:16;;;;;;;6.67;4.83;;;;;;;;;;5045606;28;20906;-44
2022/06/02 15:21:00;;;;;;;6.27;4.80;;;;;;;;;;5042725;28;20893;-44
2022/06/02 15:23:35;;;;;;;5.77;4.50;;;;;;;;;;5048636;28;20741;-44
2022/06/02 15:26:14;;;;;;;6.13;4.70;;;;;;;;;;5054759;28;20579;-43
2022/06/02 15:28:46;;;;;;;8.20;5.73;;;;;;;;;;5040914;28;20540;-44
2022/06/02 15:31:12;;;;;;;8.57;5.60;;;;;;;;;;5045465;28;20167;-43
2022/06/02 15:33:57;;;;;;;11.67;5.93;;;;;;;;;;5045826;28;20592;-43
2022/06/02 15:36:49;;;;;;;7.60;5.23;;;;;;;;;;5042856;28;20640;-43